Time;durP1;ratioP1;P1;durP2;ratioP2;P2;SDS_P1;SDS_P2;PMS_P1;PMS_P2;Temp;Humidity;BMP_temperature;BMP_pressure;BME280_temperature;BME280_humidity;BME280_pressure;Samples;Min_cycle;Max_cycle;Signal;HPM_P1;HPM_P2
2021/07/01 00:01:46;;;;;;;129.35;36.90;;;;;;;;;;5093009;28;20439;-67
2021/07/01 00:04:12;;;;;;;88.82;35.17;;;;;;;;;;5093147;28;20414;-67
2021/07/01 00:06:37;;;;;;;112.97;38.15;;;;;;;;;;5093222;28;20020;-66
2021/07/01 00:09:03;;;;;;;126.47;37.75;;;;;;;;;;5093507;28;20350;-67
2021/07/01 00:11:28;;;;;;;112.82;36.83;;;;;;;;;;5093262;28;20028;-67
2021/07/01 00:13:54;;;;;;;93.38;34.95;;;;;;;;;;5093241;28;20020;-67
2021/07/01 00:16:19;;;;;;;147.25;39.92;;;;;;;;;;5092833;28;20060;-67
2021/07/01 00:18:45;;;;;;;111.63;36.50;;;;;;;;;;5094138;28;20064;-66
2021/07/01 00:21:10;;;;;;;103.38;36.83;;;;;;;;;;5099820;28;20024;-66
2021/07/01 00:23:35;;;;;;;120.93;38.08;;;;;;;;;;5100431;28;20024;-66
2021/07/01 00:26:01;;;;;;;86.68;33.92;;;;;;;;;;5098261;28;20043;-66
2021/07/01 00:28:26;;;;;;;86.20;34.08;;;;;;;;;;5100033;28;20052;-67
2021/07/01 00:30:51;;;;;;;95.32;34.30;;;;;;;;;;5099761;28;20020;-67
2021/07/01 00:33:16;;;;;;;89.68;34.05;;;;;;;;;;5099912;28;20454;-67
2021/07/01 00:35:42;;;;;;;102.13;37.90;;;;;;;;;;5099631;28;20032;-66
2021/07/01 00:38:07;;;;;;;109.00;36.95;;;;;;;;;;5099850;28;20085;-66
2021/07/01 00:40:32;;;;;;;105.60;37.22;;;;;;;;;;5099726;28;20038;-67
2021/07/01 00:42:58;;;;;;;110.13;37.10;;;;;;;;;;5099755;28;20418;-66
2021/07/01 00:45:23;;;;;;;120.72;37.75;;;;;;;;;;5099843;28;20047;-67
2021/07/01 00:47:48;;;;;;;105.20;38.33;;;;;;;;;;5099691;28;20039;-66
2021/07/01 00:50:14;;;;;;;100.28;36.72;;;;;;;;;;5099417;28;20145;-66
2021/07/01 00:52:39;;;;;;;110.07;37.92;;;;;;;;;;5099707;28;20065;-67
2021/07/01 00:55:06;;;;;;;117.95;38.42;;;;;;;;;;5099337;28;20123;-67
2021/07/01 00:57:32;;;;;;;113.57;38.53;;;;;;;;;;5099698;28;20015;-66
2021/07/01 00:59:58;;;;;;;94.97;37.10;;;;;;;;;;5098450;28;20462;-67
2021/07/01 01:02:23;;;;;;;109.75;38.22;;;;;;;;;;5099573;28;20038;-67
2021/07/01 01:04:48;;;;;;;90.55;34.85;;;;;;;;;;5099520;28;20154;-66
2021/07/01 01:07:13;;;;;;;94.47;34.33;;;;;;;;;;5099610;28;20030;-67
2021/07/01 01:09:39;;;;;;;111.15;35.90;;;;;;;;;;5099795;28;20027;-66
2021/07/01 01:12:04;;;;;;;94.80;36.88;;;;;;;;;;5099482;28;20376;-67
2021/07/01 01:14:30;;;;;;;92.40;36.97;;;;;;;;;;5099562;28;20028;-67
2021/07/01 01:16:55;;;;;;;106.50;37.30;;;;;;;;;;5099441;28;20377;-66
2021/07/01 01:19:20;;;;;;;129.82;38.75;;;;;;;;;;5099293;28;20472;-66
2021/07/01 01:21:49;;;;;;;98.90;36.78;;;;;;;;;;5099351;28;20020;-67
2021/07/01 01:24:15;;;;;;;109.07;36.03;;;;;;;;;;5099437;28;20051;-66
2021/07/01 01:26:40;;;;;;;108.80;36.47;;;;;;;;;;5098988;28;20020;-66
2021/07/01 01:29:05;;;;;;;101.80;36.97;;;;;;;;;;5099389;28;20043;-67
2021/07/01 01:31:31;;;;;;;86.60;34.25;;;;;;;;;;5096213;28;20024;-67
2021/07/01 01:33:56;;;;;;;107.13;36.17;;;;;;;;;;5096120;28;20051;-67
2021/07/01 01:36:22;;;;;;;115.32;37.92;;;;;;;;;;5095559;28;20387;-66
2021/07/01 01:38:47;;;;;;;97.15;34.15;;;;;;;;;;5079761;28;20472;-66
2021/07/01 01:41:13;;;;;;;93.25;35.28;;;;;;;;;;5075416;28;20029;-66
2021/07/01 01:43:38;;;;;;;120.75;38.15;;;;;;;;;;5075905;28;20016;-67
2021/07/01 01:46:03;;;;;;;106.38;35.20;;;;;;;;;;5075292;28;20044;-67
2021/07/01 01:48:29;;;;;;;115.95;37.63;;;;;;;;;;5075648;28;20024;-67
2021/07/01 01:50:54;;;;;;;87.80;33.70;;;;;;;;;;5075533;28;20381;-66
2021/07/01 01:53:19;;;;;;;101.13;34.50;;;;;;;;;;5075590;28;20041;-66
2021/07/01 01:55:44;;;;;;;79.80;34.13;;;;;;;;;;5075213;28;20059;-66
2021/07/01 01:58:10;;;;;;;137.15;39.28;;;;;;;;;;5075270;28;20092;-67
2021/07/01 02:00:36;;;;;;;110.75;38.22;;;;;;;;;;5075006;28;20035;-66
2021/07/01 02:03:02;;;;;;;95.38;36.88;;;;;;;;;;5074915;28;20021;-66
2021/07/01 02:05:27;;;;;;;100.72;39.15;;;;;;;;;;5075430;28;20053;-66
2021/07/01 02:07:53;;;;;;;120.10;40.20;;;;;;;;;;5075272;28;20449;-66
2021/07/01 02:10:22;;;;;;;182.63;42.65;;;;;;;;;;5075375;28;20025;-67
2021/07/01 02:12:48;;;;;;;108.10;37.58;;;;;;;;;;5075252;28;20024;-67
2021/07/01 02:15:15;;;;;;;184.10;44.60;;;;;;;;;;5078509;28;20032;-66
2021/07/01 02:17:40;;;;;;;113.28;37.42;;;;;;;;;;5095206;28;20069;-67
2021/07/01 02:20:08;;;;;;;121.68;39.00;;;;;;;;;;5095339;28;20051;-67
2021/07/01 02:22:33;;;;;;;117.55;37.92;;;;;;;;;;5095206;28;20028;-67
2021/07/01 02:24:58;;;;;;;95.10;34.92;;;;;;;;;;5095235;28;20030;-67
2021/07/01 02:27:24;;;;;;;118.45;36.75;;;;;;;;;;5095463;28;20024;-67
2021/07/01 02:29:49;;;;;;;106.68;37.05;;;;;;;;;;5095042;28;20070;-66
2021/07/01 02:32:14;;;;;;;129.10;39.28;;;;;;;;;;5093744;28;20028;-66
2021/07/01 02:34:40;;;;;;;81.63;32.63;;;;;;;;;;5094784;28;20468;-67
2021/07/01 02:37:06;;;;;;;85.97;33.28;;;;;;;;;;5094829;28;20024;-67
2021/07/01 02:39:32;;;;;;;84.65;32.55;;;;;;;;;;5094991;28;20091;-66
2021/07/01 02:41:57;;;;;;;87.38;32.72;;;;;;;;;;5094575;28;20095;-66
2021/07/01 02:44:22;;;;;;;92.75;34.10;;;;;;;;;;5094894;28;20468;-67
2021/07/01 02:46:47;;;;;;;79.32;33.33;;;;;;;;;;5094800;28;20020;-67
2021/07/01 02:49:13;;;;;;;164.18;40.90;;;;;;;;;;5094613;28;20051;-67
2021/07/01 02:51:38;;;;;;;75.82;30.08;;;;;;;;;;5094507;28;20036;-66
2021/07/01 02:54:03;;;;;;;141.43;37.67;;;;;;;;;;5094609;28;20020;-66
2021/07/01 02:56:39;;;;;;;116.45;34.58;;;;;;;;;;5094145;28;20385;-66
2021/07/01 02:59:05;;;;;;;151.35;38.08;;;;;;;;;;5094264;28;20492;-67
2021/07/01 03:01:30;;;;;;;84.13;31.42;;;;;;;;;;5094448;28;20020;-67
2021/07/01 03:03:55;;;;;;;95.70;31.25;;;;;;;;;;5094093;28;20047;-67
2021/07/01 03:06:21;;;;;;;92.03;31.88;;;;;;;;;;5094283;28;20027;-66
2021/07/01 03:08:46;;;;;;;126.68;35.08;;;;;;;;;;5094372;28;20107;-67
2021/07/01 03:11:11;;;;;;;154.98;36.83;;;;;;;;;;5094240;28;20032;-66
2021/07/01 03:13:36;;;;;;;82.05;31.35;;;;;;;;;;5094015;28;20372;-66
2021/07/01 03:16:02;;;;;;;93.85;30.92;;;;;;;;;;5094336;28;20036;-67
2021/07/01 03:18:27;;;;;;;122.18;34.55;;;;;;;;;;5094183;28;20043;-66
2021/07/01 03:20:52;;;;;;;101.50;33.30;;;;;;;;;;5094020;28;20029;-66
2021/07/01 03:23:18;;;;;;;95.47;30.05;;;;;;;;;;5094176;28;20067;-66
2021/07/01 03:25:43;;;;;;;143.98;36.53;;;;;;;;;;5093953;28;20032;-66
2021/07/01 03:28:08;;;;;;;96.20;31.58;;;;;;;;;;5094028;28;20012;-67
2021/07/01 03:30:33;;;;;;;99.05;32.38;;;;;;;;;;5094132;28;20105;-66
2021/07/01 03:32:59;;;;;;;76.13;29.30;;;;;;;;;;5093475;28;20475;-67
2021/07/01 03:35:24;;;;;;;121.15;33.88;;;;;;;;;;5093957;28;20036;-67
2021/07/01 03:37:49;;;;;;;115.13;32.10;;;;;;;;;;5093705;28;20038;-67
2021/07/01 03:40:15;;;;;;;97.88;32.55;;;;;;;;;;5093907;28;20028;-66
2021/07/01 03:42:40;;;;;;;74.78;30.05;;;;;;;;;;5093567;28;20027;-66
2021/07/01 03:45:05;;;;;;;88.57;32.42;;;;;;;;;;5093811;28;20028;-66
2021/07/01 03:47:31;;;;;;;87.13;31.10;;;;;;;;;;5093259;28;20036;-66
2021/07/01 03:49:56;;;;;;;108.53;33.58;;;;;;;;;;5093289;28;20058;-67
2021/07/01 03:52:21;;;;;;;79.47;29.92;;;;;;;;;;5093344;28;20031;-66
2021/07/01 03:54:47;;;;;;;105.22;31.63;;;;;;;;;;5092882;28;20032;-67
2021/07/01 03:57:12;;;;;;;96.28;32.30;;;;;;;;;;5093441;28;20024;-67
2021/07/01 03:59:37;;;;;;;84.05;29.88;;;;;;;;;;5093615;28;20027;-66
2021/07/01 04:02:03;;;;;;;108.00;32.42;;;;;;;;;;5093660;28;20036;-67
2021/07/01 04:04:28;;;;;;;84.57;30.48;;;;;;;;;;5093267;28;20044;-67
2021/07/01 04:06:53;;;;;;;108.68;31.98;;;;;;;;;;5093254;28;20051;-66
2021/07/01 04:09:18;;;;;;;134.05;34.95;;;;;;;;;;5093487;28;20105;-67
2021/07/01 04:11:44;;;;;;;91.97;33.78;;;;;;;;;;5093267;28;20024;-67
2021/07/01 04:14:12;;;;;;;126.03;37.03;;;;;;;;;;5093644;28;20016;-66
2021/07/01 04:16:37;;;;;;;107.75;33.85;;;;;;;;;;5093020;28;20044;-66
2021/07/01 04:19:03;;;;;;;134.55;36.67;;;;;;;;;;5093262;28;20377;-66
2021/07/01 04:21:28;;;;;;;94.28;32.20;;;;;;;;;;5092051;28;20107;-67
2021/07/01 04:23:54;;;;;;;91.40;31.95;;;;;;;;;;5093128;28;20039;-66
2021/07/01 04:26:19;;;;;;;122.22;37.05;;;;;;;;;;5093197;28;20024;-66
2021/07/01 04:28:45;;;;;;;79.72;31.08;;;;;;;;;;5092934;28;20073;-67
2021/07/01 04:31:10;;;;;;;95.13;31.77;;;;;;;;;;5093095;28;20031;-66
2021/07/01 04:33:35;;;;;;;110.15;33.65;;;;;;;;;;5093135;28;20052;-67
2021/07/01 04:36:01;;;;;;;93.93;33.17;;;;;;;;;;5092972;28;20294;-67
2021/07/01 04:38:26;;;;;;;123.68;35.58;;;;;;;;;;5093166;28;20036;-67
2021/07/01 04:40:51;;;;;;;97.53;33.95;;;;;;;;;;5092740;28;20012;-67
2021/07/01 04:43:17;;;;;;;75.10;29.35;;;;;;;;;;5092966;28;20294;-66
2021/07/01 04:45:42;;;;;;;126.72;35.03;;;;;;;;;;5093076;28;20028;-67
2021/07/01 04:48:08;;;;;;;81.55;30.58;;;;;;;;;;5092943;28;20024;-67
2021/07/01 04:50:33;;;;;;;114.13;34.92;;;;;;;;;;5093074;28;20016;-65
2021/07/01 04:52:58;;;;;;;166.40;38.72;;;;;;;;;;5092908;28;20361;-67
2021/07/01 04:55:23;;;;;;;75.30;29.25;;;;;;;;;;5092965;28;20487;-66
2021/07/01 04:57:49;;;;;;;90.00;29.73;;;;;;;;;;5091515;28;20099;-66
2021/07/01 05:00:14;;;;;;;91.50;29.08;;;;;;;;;;5092914;28;20031;-67
2021/07/01 05:02:39;;;;;;;112.78;32.97;;;;;;;;;;5092855;28;20133;-67
2021/07/01 05:05:05;;;;;;;115.20;33.35;;;;;;;;;;5092463;28;20052;-67
2021/07/01 05:07:30;;;;;;;99.43;32.13;;;;;;;;;;5095833;28;20034;-67
2021/07/01 05:09:56;;;;;;;89.22;30.70;;;;;;;;;;5096618;28;20016;-67
2021/07/01 05:12:21;;;;;;;134.13;35.40;;;;;;;;;;5096666;28;20023;-66
2021/07/01 05:14:46;;;;;;;127.22;34.47;;;;;;;;;;5096156;28;20075;-66
2021/07/01 05:17:11;;;;;;;130.98;34.47;;;;;;;;;;5096582;28;20030;-67
2021/07/01 05:19:37;;;;;;;93.00;30.98;;;;;;;;;;5096577;28;20024;-66
2021/07/01 05:22:02;;;;;;;99.47;31.60;;;;;;;;;;5096066;28;20089;-66
2021/07/01 05:24:28;;;;;;;98.90;30.58;;;;;;;;;;5096355;28;20024;-67
2021/07/01 05:26:53;;;;;;;92.93;31.88;;;;;;;;;;5096313;28;20031;-66
2021/07/01 05:29:18;;;;;;;104.22;30.52;;;;;;;;;;5096264;28;20024;-67
2021/07/01 05:31:44;;;;;;;91.28;30.67;;;;;;;;;;5096132;28;20031;-67
2021/07/01 05:34:09;;;;;;;137.98;38.13;;;;;;;;;;5096538;28;20103;-67
2021/07/01 05:36:34;;;;;;;87.78;28.85;;;;;;;;;;5095754;28;20048;-66
2021/07/01 05:38:59;;;;;;;103.03;31.15;;;;;;;;;;5096319;28;20024;-66
2021/07/01 05:41:25;;;;;;;74.70;28.40;;;;;;;;;;5096094;28;20336;-67
2021/07/01 05:43:50;;;;;;;61.85;27.20;;;;;;;;;;5095991;28;20473;-66
2021/07/01 05:46:15;;;;;;;73.43;26.50;;;;;;;;;;5095989;28;20071;-67
2021/07/01 05:48:41;;;;;;;58.45;23.77;;;;;;;;;;5096006;28;20384;-67
2021/07/01 05:51:08;;;;;;;50.63;22.30;;;;;;;;;;5095904;28;20066;-67
2021/07/01 05:56:14;;;;;;;52.67;23.30;;;;;;;;;;5095719;28;20028;-67
2021/07/01 05:58:39;;;;;;;45.00;20.80;;;;;;;;;;5095747;28;20038;-67
2021/07/01 06:01:04;;;;;;;55.80;26.17;;;;;;;;;;5095730;28;20475;-67
2021/07/01 06:03:31;;;;;;;55.80;25.33;;;;;;;;;;5095165;28;20103;-67
2021/07/01 06:06:00;;;;;;;59.33;27.85;;;;;;;;;;5095540;28;20463;-67
2021/07/01 06:08:31;;;;;;;52.88;27.30;;;;;;;;;;5095414;28;20052;-67
2021/07/01 06:11:01;;;;;;;55.92;27.17;;;;;;;;;;5095500;28;20070;-67
2021/07/01 06:13:27;;;;;;;60.15;29.10;;;;;;;;;;5095390;28;20044;-67
2021/07/01 06:15:53;;;;;;;65.05;31.42;;;;;;;;;;5095279;28;20039;-67
2021/07/01 06:18:19;;;;;;;33.45;19.83;;;;;;;;;;5094451;28;20032;-67
2021/07/01 06:20:44;;;;;;;47.65;24.67;;;;;;;;;;5095083;28;20496;-67
2021/07/01 06:23:11;;;;;;;53.55;25.33;;;;;;;;;;5095218;28;20027;-67
2021/07/01 06:25:36;;;;;;;50.95;28.52;;;;;;;;;;5094988;28;20476;-67
2021/07/01 06:28:01;;;;;;;43.42;23.45;;;;;;;;;;5095092;28;20039;-66
2021/07/01 06:30:27;;;;;;;38.72;21.83;;;;;;;;;;5095217;28;20024;-67
2021/07/01 06:32:53;;;;;;;45.85;25.05;;;;;;;;;;5095213;28;20028;-66
2021/07/01 06:35:19;;;;;;;48.70;27.17;;;;;;;;;;5094963;28;20380;-67
2021/07/01 06:37:45;;;;;;;41.35;22.42;;;;;;;;;;5094806;28;20028;-67
2021/07/01 06:40:11;;;;;;;50.28;26.50;;;;;;;;;;5094602;28;20388;-67
2021/07/01 06:42:42;;;;;;;39.05;23.38;;;;;;;;;;5094748;28;20032;-66
2021/07/01 06:45:08;;;;;;;48.35;27.50;;;;;;;;;;5094779;28;20376;-67
2021/07/01 06:47:33;;;;;;;52.08;27.55;;;;;;;;;;5094701;28;20343;-66
2021/07/01 06:50:00;;;;;;;53.25;28.15;;;;;;;;;;5094450;28;20089;-67
2021/07/01 06:52:25;;;;;;;51.58;29.02;;;;;;;;;;5094716;28;20028;-67
2021/07/01 06:54:51;;;;;;;58.50;30.50;;;;;;;;;;5094542;28;20024;-66
2021/07/01 06:57:17;;;;;;;55.88;31.15;;;;;;;;;;5094556;28;20028;-67
2021/07/01 06:59:43;;;;;;;52.78;29.48;;;;;;;;;;5094544;28;20115;-67
2021/07/01 07:02:10;;;;;;;57.25;30.08;;;;;;;;;;5094049;28;20028;-67
2021/07/01 07:04:35;;;;;;;49.72;29.42;;;;;;;;;;5094362;28;20056;-67
2021/07/01 07:07:02;;;;;;;51.20;27.63;;;;;;;;;;5094317;28;20399;-67
2021/07/01 07:09:28;;;;;;;48.97;28.48;;;;;;;;;;5094172;28;20519;-67
2021/07/01 07:11:53;;;;;;;47.55;28.27;;;;;;;;;;5094205;28;20059;-67
2021/07/01 07:14:18;;;;;;;51.15;28.58;;;;;;;;;;5094330;28;20020;-66
2021/07/01 07:16:45;;;;;;;52.88;30.05;;;;;;;;;;5094058;28;20520;-67
2021/07/01 07:19:10;;;;;;;49.45;26.88;;;;;;;;;;5094170;28;20122;-67
2021/07/01 07:21:43;;;;;;;43.90;26.10;;;;;;;;;;5094072;28;20593;-66
2021/07/01 07:24:09;;;;;;;47.17;25.65;;;;;;;;;;5094149;28;20089;-67
2021/07/01 07:26:36;;;;;;;42.40;25.77;;;;;;;;;;5093855;28;20481;-67
2021/07/01 07:29:01;;;;;;;42.65;25.42;;;;;;;;;;5093308;28;20020;-67
2021/07/01 07:31:33;;;;;;;40.00;25.25;;;;;;;;;;5093861;28;20024;-67
2021/07/01 07:34:00;;;;;;;42.00;25.60;;;;;;;;;;5092667;28;20362;-67
2021/07/01 07:36:27;;;;;;;43.45;23.67;;;;;;;;;;5093835;28;20028;-67
2021/07/01 07:38:53;;;;;;;38.10;22.80;;;;;;;;;;5093881;28;20028;-66
2021/07/01 07:41:19;;;;;;;41.15;25.42;;;;;;;;;;5093855;28;20032;-67
2021/07/01 07:43:45;;;;;;;43.60;24.90;;;;;;;;;;5093635;28;20066;-67
2021/07/01 07:46:10;;;;;;;38.88;23.65;;;;;;;;;;5093787;28;20090;-67
2021/07/01 07:48:35;;;;;;;39.33;25.13;;;;;;;;;;5093573;28;20035;-66
2021/07/01 07:51:02;;;;;;;32.72;22.25;;;;;;;;;;5093722;28;20015;-68
2021/07/01 07:53:31;;;;;;;35.10;22.15;;;;;;;;;;5093522;28;20040;-67
2021/07/01 07:56:02;;;;;;;36.92;24.77;;;;;;;;;;5093743;28;20075;-67
2021/07/01 07:58:29;;;;;;;34.75;24.38;;;;;;;;;;5093499;28;20020;-67
2021/07/01 08:00:56;;;;;;;38.75;22.25;;;;;;;;;;5093533;28;20038;-67
2021/07/01 08:03:22;;;;;;;36.75;22.52;;;;;;;;;;5093473;28;20028;-67
2021/07/01 08:05:47;;;;;;;33.40;22.42;;;;;;;;;;5093523;28;20048;-67
2021/07/01 08:08:15;;;;;;;30.20;20.52;;;;;;;;;;5092987;28;20388;-67
2021/07/01 08:10:40;;;;;;;29.27;22.02;;;;;;;;;;5093455;28;20027;-67
2021/07/01 08:13:06;;;;;;;29.70;20.58;;;;;;;;;;5093272;28;20028;-66
2021/07/01 08:15:33;;;;;;;24.85;19.35;;;;;;;;;;5092088;28;20400;-68
2021/07/01 08:18:00;;;;;;;27.88;19.55;;;;;;;;;;5093203;28;20032;-67
2021/07/01 08:20:25;;;;;;;22.63;17.10;;;;;;;;;;5093329;28;20032;-68
2021/07/01 08:22:52;;;;;;;26.60;18.73;;;;;;;;;;5092897;28;20491;-67
2021/07/01 08:25:18;;;;;;;27.52;19.05;;;;;;;;;;5092556;28;20028;-68
2021/07/01 08:27:44;;;;;;;26.00;17.23;;;;;;;;;;5093144;28;20024;-68
2021/07/01 08:30:10;;;;;;;23.38;17.85;;;;;;;;;;5091824;28;20093;-68
2021/07/01 08:32:36;;;;;;;27.60;20.08;;;;;;;;;;5093023;28;20448;-68
2021/07/01 08:35:02;;;;;;;28.52;18.73;;;;;;;;;;5093116;28;20038;-68
2021/07/01 08:37:31;;;;;;;26.98;19.80;;;;;;;;;;5091807;28;20032;-68
2021/07/01 08:40:01;;;;;;;30.33;20.73;;;;;;;;;;5093527;28;20075;-67
2021/07/01 08:42:31;;;;;;;25.67;19.83;;;;;;;;;;5096811;28;20492;-68
2021/07/01 08:45:00;;;;;;;29.77;19.50;;;;;;;;;;5097086;28;20032;-68
2021/07/01 08:47:35;;;;;;;27.88;19.38;;;;;;;;;;5097083;28;20020;-68
2021/07/01 08:50:05;;;;;;;28.45;19.25;;;;;;;;;;5097160;28;20031;-68
2021/07/01 08:52:31;;;;;;;24.77;18.90;;;;;;;;;;5096631;28;20485;-68
2021/07/01 08:55:06;;;;;;;24.17;16.83;;;;;;;;;;5096652;28;20488;-68
2021/07/01 08:57:33;;;;;;;;;;;;;;;;;;5097205;28;20047;-68
2021/07/01 09:00:07;;;;;;;30.67;19.20;;;;;;;;;;5096868;28;19911;-68
2021/07/01 09:02:34;;;;;;;26.77;18.30;;;;;;;;;;5096856;28;20058;-67
2021/07/01 09:05:02;;;;;;;28.42;17.77;;;;;;;;;;5096490;28;20097;-67
2021/07/01 09:07:27;;;;;;;26.35;19.05;;;;;;;;;;5096667;28;20024;-68
2021/07/01 09:09:57;;;;;;;25.45;18.00;;;;;;;;;;5097010;28;20454;-68
2021/07/01 09:12:24;;;;;;;26.08;18.48;;;;;;;;;;5096321;28;20519;-67
2021/07/01 09:14:59;;;;;;;21.90;15.27;;;;;;;;;;5096562;28;20519;-68
2021/07/01 09:17:26;;;;;;;21.83;16.70;;;;;;;;;;5096523;28;20038;-68
2021/07/01 09:19:54;;;;;;;23.90;18.27;;;;;;;;;;5096510;28;20149;-67
2021/07/01 09:22:21;;;;;;;21.33;16.33;;;;;;;;;;5096455;28;20117;-68
2021/07/01 09:24:47;;;;;;;25.55;18.52;;;;;;;;;;5096453;28;20073;-68
2021/07/01 09:27:13;;;;;;;26.30;16.80;;;;;;;;;;5096264;28;20048;-68
2021/07/01 09:29:42;;;;;;;23.45;16.10;;;;;;;;;;5096089;28;20028;-68
2021/07/01 09:32:08;;;;;;;24.30;16.02;;;;;;;;;;5096398;28;20035;-68
2021/07/01 09:34:34;;;;;;;27.30;17.48;;;;;;;;;;5096259;28;20388;-68
2021/07/01 09:37:01;;;;;;;23.10;15.88;;;;;;;;;;5096055;28;20039;-68
2021/07/01 09:39:27;;;;;;;25.35;16.23;;;;;;;;;;5096464;28;20043;-68
2021/07/01 09:41:57;;;;;;;24.42;15.82;;;;;;;;;;5096073;28;20028;-68
2021/07/01 09:44:23;;;;;;;21.02;14.50;;;;;;;;;;5096001;28;20020;-67
2021/07/01 09:46:49;;;;;;;21.77;15.80;;;;;;;;;;5096018;28;20028;-68
2021/07/01 09:49:18;;;;;;;22.35;16.45;;;;;;;;;;5095753;28;20043;-67
2021/07/01 09:51:46;;;;;;;27.92;15.65;;;;;;;;;;5095281;28;20096;-67
2021/07/01 09:54:14;;;;;;;22.48;15.18;;;;;;;;;;5095595;28;20487;-68
2021/07/01 09:56:41;;;;;;;21.17;15.95;;;;;;;;;;5095483;28;20047;-67
2021/07/01 09:59:13;;;;;;;26.80;16.60;;;;;;;;;;5095729;28;20024;-68
2021/07/01 10:01:38;;;;;;;21.40;16.67;;;;;;;;;;5095773;28;20032;-68
2021/07/01 10:04:04;;;;;;;25.73;17.70;;;;;;;;;;5095578;28;20456;-67
2021/07/01 10:06:29;;;;;;;30.35;17.98;;;;;;;;;;5095643;28;20016;-67
2021/07/01 10:08:55;;;;;;;31.95;20.42;;;;;;;;;;5095154;28;20103;-67
2021/07/01 10:11:41;;;;;;;25.75;19.13;;;;;;;;;;5095628;28;20032;-67
2021/07/01 10:14:08;;;;;;;27.88;20.30;;;;;;;;;;5095351;28;20536;-67
2021/07/01 10:16:34;;;;;;;29.83;19.88;;;;;;;;;;5095412;28;20036;-68
2021/07/01 10:19:00;;;;;;;29.15;21.42;;;;;;;;;;5094967;28;20354;-67
2021/07/01 10:21:29;;;;;;;31.40;21.40;;;;;;;;;;5095394;28;20119;-67
2021/07/01 10:24:14;;;;;;;29.75;19.10;;;;;;;;;;5095065;28;20032;-67
2021/07/01 10:26:41;;;;;;;27.25;18.58;;;;;;;;;;5095493;28;20035;-68
2021/07/01 10:29:06;;;;;;;32.00;22.10;;;;;;;;;;5095038;28;20043;-68
2021/07/01 10:31:52;;;;;;;31.77;21.65;;;;;;;;;;5095119;28;20024;-68
2021/07/01 10:34:19;;;;;;;31.20;18.50;;;;;;;;;;5074758;28;20032;-68
2021/07/01 10:36:44;;;;;;;27.42;19.30;;;;;;;;;;5074752;28;20037;-68
2021/07/01 10:39:09;;;;;;;35.75;22.13;;;;;;;;;;5074788;28;20350;-67
2021/07/01 10:41:37;;;;;;;27.52;19.30;;;;;;;;;;5075048;28;20063;-67
2021/07/01 10:44:03;;;;;;;37.05;20.92;;;;;;;;;;5074191;28;20496;-68
2021/07/01 10:46:38;;;;;;;27.02;20.27;;;;;;;;;;5074645;28;20017;-67
2021/07/01 10:49:03;;;;;;;;;;;;;;;;;;5075038;28;20036;-67
2021/07/01 10:51:29;;;;;;;33.92;23.27;;;;;;;;;;5074507;28;19904;-68
2021/07/01 10:54:07;;;;;;;31.75;21.02;;;;;;;;;;5074054;28;20374;-68
2021/07/01 10:56:42;;;;;;;30.80;20.98;;;;;;;;;;5074309;28;20076;-68
2021/07/01 10:59:10;;;;;;;32.42;22.25;;;;;;;;;;5074359;28;20060;-67
2021/07/01 11:01:37;;;;;;;38.80;23.40;;;;;;;;;;5074269;28;20035;-67
2021/07/01 11:04:04;;;;;;;35.13;23.48;;;;;;;;;;5081182;28;20162;-67
2021/07/01 11:06:29;;;;;;;32.78;23.75;;;;;;;;;;5094705;28;20024;-67
2021/07/01 11:08:55;;;;;;;34.30;23.05;;;;;;;;;;5094297;28;20028;-68
2021/07/01 11:11:22;;;;;;;37.55;25.23;;;;;;;;;;5094385;28;20066;-67
2021/07/01 11:13:54;;;;;;;36.25;22.80;;;;;;;;;;5094181;28;20024;-67
2021/07/01 11:16:19;;;;;;;33.28;24.48;;;;;;;;;;5094205;28;20073;-67
2021/07/01 11:18:47;;;;;;;34.30;23.67;;;;;;;;;;5094121;28;20032;-68
2021/07/01 11:21:17;;;;;;;27.55;22.77;;;;;;;;;;5094225;28;20069;-68
2021/07/01 11:23:44;;;;;;;35.00;24.10;;;;;;;;;;5094351;28;20024;-68
2021/07/01 11:26:23;;;;;;;36.88;23.35;;;;;;;;;;5093828;28;20503;-68
2021/07/01 11:28:48;;;;;;;31.80;22.73;;;;;;;;;;5093639;28;20393;-66
2021/07/01 11:31:14;;;;;;;33.58;22.67;;;;;;;;;;5093769;28;20061;-68
2021/07/01 11:33:39;;;;;;;33.70;23.95;;;;;;;;;;5093872;28;20016;-68
2021/07/01 11:36:11;;;;;;;36.13;23.50;;;;;;;;;;5093972;28;20052;-68
2021/07/01 11:38:37;;;;;;;28.55;22.00;;;;;;;;;;5093697;28;20028;-68
2021/07/01 11:41:04;;;;;;;33.40;21.92;;;;;;;;;;5093861;28;20414;-69
2021/07/01 11:43:30;;;;;;;28.65;21.02;;;;;;;;;;5093383;28;20415;-68
2021/07/01 11:45:56;;;;;;;29.35;20.35;;;;;;;;;;5093789;28;20042;-68
2021/07/01 11:48:22;;;;;;;34.05;22.40;;;;;;;;;;5093645;28;20400;-68
2021/07/01 11:50:48;;;;;;;30.75;19.98;;;;;;;;;;5093630;28;20516;-68
2021/07/01 11:53:14;;;;;;;29.77;21.60;;;;;;;;;;5082065;28;20079;-68
2021/07/01 11:55:40;;;;;;;32.13;22.45;;;;;;;;;;5072758;28;20071;-68
2021/07/01 11:58:05;;;;;;;28.13;22.50;;;;;;;;;;5073038;28;20479;-69
2021/07/01 12:00:30;;;;;;;30.00;20.95;;;;;;;;;;5073331;28;20046;-69
2021/07/01 12:02:57;;;;;;;31.83;20.90;;;;;;;;;;5073229;28;20465;-67
2021/07/01 12:05:22;;;;;;;32.30;20.67;;;;;;;;;;5073229;28;20435;-68
2021/07/01 12:07:48;;;;;;;31.95;21.23;;;;;;;;;;5073156;28;20036;-69
2021/07/01 12:10:17;;;;;;;29.85;20.27;;;;;;;;;;5073223;28;20021;-68
2021/07/01 12:12:42;;;;;;;30.58;21.23;;;;;;;;;;5083790;28;20028;-68
2021/07/01 12:15:09;;;;;;;30.52;21.73;;;;;;;;;;5092883;28;20545;-68
2021/07/01 12:17:54;;;;;;;34.25;24.10;;;;;;;;;;5093248;28;20031;-68
2021/07/01 12:20:25;;;;;;;34.33;23.02;;;;;;;;;;5093255;28;20109;-68
2021/07/01 12:22:51;;;;;;;31.92;22.45;;;;;;;;;;5093181;28;20032;-68
2021/07/01 12:25:17;;;;;;;34.05;23.23;;;;;;;;;;5093319;28;20101;-68
2021/07/01 12:27:43;;;;;;;35.28;24.83;;;;;;;;;;5093161;28;20035;-68
2021/07/01 12:30:08;;;;;;;32.33;21.95;;;;;;;;;;5093270;28;20024;-68
2021/07/01 12:32:34;;;;;;;28.05;19.77;;;;;;;;;;5093167;28;20480;-68
2021/07/01 12:35:19;;;;;;;34.70;22.02;;;;;;;;;;5093279;28;20035;-69
2021/07/01 12:38:03;;;;;;;32.40;20.92;;;;;;;;;;5092632;28;20036;-68
2021/07/01 12:40:28;;;;;;;29.95;23.13;;;;;;;;;;5093154;28;20028;-68
2021/07/01 12:42:54;;;;;;;32.55;23.13;;;;;;;;;;5092993;28;20059;-68
2021/07/01 12:45:29;;;;;;;33.50;22.38;;;;;;;;;;5093038;28;20024;-68
2021/07/01 12:47:54;;;;;;;32.22;23.05;;;;;;;;;;5093006;28;20028;-68
2021/07/01 12:50:26;;;;;;;34.40;24.83;;;;;;;;;;5092843;28;20373;-68
2021/07/01 12:52:52;;;;;;;37.75;23.92;;;;;;;;;;5093028;28;20560;-68
2021/07/01 12:55:18;;;;;;;26.70;21.17;;;;;;;;;;5092891;28;20101;-68
2021/07/01 12:57:43;;;;;;;35.55;22.70;;;;;;;;;;5090712;28;20131;-67
2021/07/01 13:00:09;;;;;;;30.23;21.83;;;;;;;;;;5091009;28;20114;-65
2021/07/01 13:02:34;;;;;;;30.55;21.02;;;;;;;;;;5090977;28;20469;-64
2021/07/01 13:05:01;;;;;;;30.50;22.45;;;;;;;;;;5090618;28;20056;-64
2021/07/01 13:07:27;;;;;;;30.27;21.75;;;;;;;;;;5091758;28;20460;-65
2021/07/01 13:09:53;;;;;;;32.70;22.42;;;;;;;;;;5092133;28;20028;-68
2021/07/01 13:12:22;;;;;;;30.73;20.15;;;;;;;;;;5092172;28;20100;-67
2021/07/01 13:14:49;;;;;;;32.42;21.23;;;;;;;;;;5092374;28;20031;-67
2021/07/01 13:17:16;;;;;;;30.73;21.52;;;;;;;;;;5092449;28;20044;-67
2021/07/01 13:19:42;;;;;;;34.97;21.38;;;;;;;;;;5092319;28;20032;-67
2021/07/01 13:22:09;;;;;;;31.58;20.92;;;;;;;;;;5092816;28;20027;-67
2021/07/01 13:24:35;;;;;;;29.05;20.73;;;;;;;;;;5092629;28;20044;-68
2021/07/01 13:27:00;;;;;;;37.88;22.70;;;;;;;;;;5093208;28;20039;-67
2021/07/01 13:29:51;;;;;;;33.55;22.58;;;;;;;;;;5096287;28;20476;-67
2021/07/01 13:32:17;;;;;;;33.38;22.60;;;;;;;;;;5094758;28;20119;-67
2021/07/01 13:34:42;;;;;;;34.70;23.48;;;;;;;;;;5096075;28;20493;-68
2021/07/01 13:37:23;;;;;;;38.35;23.45;;;;;;;;;;5095925;28;20024;-68
2021/07/01 13:39:49;;;;;;;36.80;22.27;;;;;;;;;;5095913;28;20034;-67
2021/07/01 13:42:21;;;;;;;34.83;22.05;;;;;;;;;;5096104;28;20170;-67
2021/07/01 13:45:04;;;;;;;35.28;22.58;;;;;;;;;;5095830;28;20031;-68
2021/07/01 13:47:31;;;;;;;31.83;20.80;;;;;;;;;;5095954;28;20052;-68
2021/07/01 13:49:56;;;;;;;29.95;20.48;;;;;;;;;;5095864;28;20028;-68
2021/07/01 13:52:22;;;;;;;39.35;19.95;;;;;;;;;;5095631;28;20023;-67
2021/07/01 13:54:47;;;;;;;35.38;24.05;;;;;;;;;;5095378;28;20024;-67
2021/07/01 13:57:13;;;;;;;38.53;22.90;;;;;;;;;;5094878;28;20404;-68
2021/07/01 13:59:38;;;;;;;28.73;20.33;;;;;;;;;;5095193;28;20035;-67
2021/07/01 14:02:19;;;;;;;33.00;21.67;;;;;;;;;;5095233;28;20024;-68
2021/07/01 14:04:44;;;;;;;33.00;22.83;;;;;;;;;;5093851;28;20040;-67
2021/07/01 14:07:10;;;;;;;33.85;23.30;;;;;;;;;;5094455;28;20024;-68
2021/07/01 14:09:35;;;;;;;33.47;22.00;;;;;;;;;;5095308;28;20063;-68
2021/07/01 14:12:00;;;;;;;34.35;21.60;;;;;;;;;;5095092;28;20052;-66
2021/07/01 14:14:26;;;;;;;34.83;23.60;;;;;;;;;;5094989;28;20467;-65
2021/07/01 14:16:51;;;;;;;32.20;22.27;;;;;;;;;;5094940;28;20032;-66